sensor_id;sensor_type;location;lat;lon;timestamp;pressure;altitude;pressure_sealevel;temperature;humidity
39129;BME280;24864;49.940;19.770;2022-11-15T00:01:14;76773.53;;;-147.98;100.00
39129;BME280;24864;49.940;19.770;2022-11-15T00:03:43;76790.19;;;-147.98;100.00
39129;BME280;24864;49.940;19.770;2022-11-15T00:06:12;76767.31;;;-147.98;100.00
39129;BME280;24864;49.940;19.770;2022-11-15T00:08:39;76761.06;;;-147.98;100.00
39129;BME280;24864;49.940;19.770;2022-11-15T00:11:10;76759.00;;;-147.98;100.00
39129;BME280;24864;49.940;19.770;2022-11-15T00:13:40;76759.00;;;-147.98;100.00
39129;BME280;24864;49.940;19.770;2022-11-15T00:16:08;76748.59;;;-147.98;100.00
39129;BME280;24864;49.940;19.770;2022-11-15T00:18:37;76740.28;;;-147.98;100.00
39129;BME280;24864;49.940;19.770;2022-11-15T00:21:10;76744.44;;;-147.98;100.00
39129;BME280;24864;49.940;19.770;2022-11-15T00:23:39;76746.50;;;-147.98;100.00
39129;BME280;24864;49.940;19.770;2022-11-15T00:26:11;76744.44;;;-147.98;100.00
39129;BME280;24864;49.940;19.770;2022-11-15T00:28:41;76729.88;;;-147.98;100.00
39129;BME280;24864;49.940;19.770;2022-11-15T00:31:12;76734.03;;;-147.98;100.00
39129;BME280;24864;49.940;19.770;2022-11-15T00:33:43;76740.28;;;-147.98;100.00
39129;BME280;24864;49.940;19.770;2022-11-15T00:36:11;76736.13;;;-147.98;100.00
39129;BME280;24864;49.940;19.770;2022-11-15T00:38:40;76740.28;;;-147.98;100.00
39129;BME280;24864;49.940;19.770;2022-11-15T00:41:08;76740.28;;;-147.98;100.00
39129;BME280;24864;49.940;19.770;2022-11-15T00:43:36;76738.19;;;-147.98;100.00
39129;BME280;24864;49.940;19.770;2022-11-15T00:46:08;76740.28;;;-147.98;100.00
39129;BME280;24864;49.940;19.770;2022-11-15T00:48:36;76734.03;;;-147.98;100.00
39129;BME280;24864;49.940;19.770;2022-11-15T00:51:05;76740.28;;;-147.98;100.00
39129;BME280;24864;49.940;19.770;2022-11-15T00:53:32;76736.13;;;-147.98;100.00
39129;BME280;24864;49.940;19.770;2022-11-15T00:56:01;76727.81;;;-147.98;100.00
39129;BME280;24864;49.940;19.770;2022-11-15T00:58:29;76731.97;;;-147.98;100.00
39129;BME280;24864;49.940;19.770;2022-11-15T01:01:05;76721.56;;;-147.98;100.00
39129;BME280;24864;49.940;19.770;2022-11-15T01:03:35;76731.97;;;-147.98;100.00
39129;BME280;24864;49.940;19.770;2022-11-15T01:06:04;76736.13;;;-147.98;100.00
39129;BME280;24864;49.940;19.770;2022-11-15T01:08:32;76740.28;;;-147.98;100.00
39129;BME280;24864;49.940;19.770;2022-11-15T01:11:01;76740.28;;;-147.98;100.00
39129;BME280;24864;49.940;19.770;2022-11-15T01:13:30;76750.66;;;-147.98;100.00
39129;BME280;24864;49.940;19.770;2022-11-15T01:16:05;76746.50;;;-147.98;100.00
39129;BME280;24864;49.940;19.770;2022-11-15T01:18:35;76763.16;;;-147.98;100.00
39129;BME280;24864;49.940;19.770;2022-11-15T01:21:08;76752.75;;;-147.98;100.00
39129;BME280;24864;49.940;19.770;2022-11-15T01:23:36;76752.75;;;-147.98;100.00
39129;BME280;24864;49.940;19.770;2022-11-15T01:26:06;76752.75;;;-147.98;100.00
39129;BME280;24864;49.940;19.770;2022-11-15T01:28:36;76752.75;;;-147.98;100.00
39129;BME280;24864;49.940;19.770;2022-11-15T01:31:08;76748.59;;;-147.98;100.00
39129;BME280;24864;49.940;19.770;2022-11-15T01:33:38;76752.75;;;-147.98;100.00
39129;BME280;24864;49.940;19.770;2022-11-15T01:36:08;76752.75;;;-147.98;100.00
39129;BME280;24864;49.940;19.770;2022-11-15T01:38:37;76756.91;;;-147.98;100.00
39129;BME280;24864;49.940;19.770;2022-11-15T01:41:05;76767.31;;;-147.98;100.00
39129;BME280;24864;49.940;19.770;2022-11-15T01:43:35;76769.38;;;-147.98;100.00
39129;BME280;24864;49.940;19.770;2022-11-15T01:46:06;76771.47;;;-147.98;100.00
39129;BME280;24864;49.940;19.770;2022-11-15T01:48:38;76781.88;;;-147.98;100.00
39129;BME280;24864;49.940;19.770;2022-11-15T01:51:08;76786.03;;;-147.98;100.00
39129;BME280;24864;49.940;19.770;2022-11-15T01:53:41;76781.88;;;-147.98;100.00
39129;BME280;24864;49.940;19.770;2022-11-15T01:56:14;76794.34;;;-147.98;100.00
39129;BME280;24864;49.940;19.770;2022-11-15T01:58:44;76798.50;;;-147.98;100.00
39129;BME280;24864;49.940;19.770;2022-11-15T02:01:13;76788.09;;;-147.98;100.00
39129;BME280;24864;49.940;19.770;2022-11-15T02:03:48;76786.03;;;-147.98;100.00
39129;BME280;24864;49.940;19.770;2022-11-15T02:06:18;76773.53;;;-147.98;100.00
39129;BME280;24864;49.940;19.770;2022-11-15T02:08:49;76763.16;;;-147.98;100.00
39129;BME280;24864;49.940;19.770;2022-11-15T02:11:18;76765.22;;;-147.98;100.00
39129;BME280;24864;49.940;19.770;2022-11-15T02:13:46;76750.66;;;-147.98;100.00
39129;BME280;24864;49.940;19.770;2022-11-15T02:16:24;76752.75;;;-147.98;100.00
39129;BME280;24864;49.940;19.770;2022-11-15T02:18:59;76756.91;;;-147.98;100.00
39129;BME280;24864;49.940;19.770;2022-11-15T02:21:35;76765.22;;;-147.98;100.00
39129;BME280;24864;49.940;19.770;2022-11-15T02:27:18;76761.06;;;-147.98;100.00
39129;BME280;24864;49.940;19.770;2022-11-15T02:30:04;76773.53;;;-147.98;100.00
39129;BME280;24864;49.940;19.770;2022-11-15T02:32:40;76771.47;;;-147.98;100.00
39129;BME280;24864;49.940;19.770;2022-11-15T02:35:16;76756.91;;;-147.98;100.00
39129;BME280;24864;49.940;19.770;2022-11-15T02:37:53;76761.06;;;-147.98;100.00
39129;BME280;24864;49.940;19.770;2022-11-15T02:40:30;76769.38;;;-147.98;100.00
39129;BME280;24864;49.940;19.770;2022-11-15T02:43:07;76794.34;;;-147.98;100.00
39129;BME280;24864;49.940;19.770;2022-11-15T02:46:00;76802.66;;;-147.98;100.00
39129;BME280;24864;49.940;19.770;2022-11-15T02:48:31;76790.19;;;-147.98;100.00
39129;BME280;24864;49.940;19.770;2022-11-15T02:51:00;76786.03;;;-147.98;100.00
39129;BME280;24864;49.940;19.770;2022-11-15T02:53:29;76794.34;;;-147.98;100.00
39129;BME280;24864;49.940;19.770;2022-11-15T02:55:57;76796.41;;;-147.98;100.00
39129;BME280;24864;49.940;19.770;2022-11-15T02:58:48;76794.34;;;-147.98;100.00
39129;BME280;24864;49.940;19.770;2022-11-15T03:01:30;76798.50;;;-147.98;100.00
39129;BME280;24864;49.940;19.770;2022-11-15T03:04:10;76788.09;;;-147.98;100.00
39129;BME280;24864;49.940;19.770;2022-11-15T03:06:44;76806.81;;;-147.98;100.00
39129;BME280;24864;49.940;19.770;2022-11-15T03:09:23;76810.97;;;-147.98;100.00
39129;BME280;24864;49.940;19.770;2022-11-15T03:11:57;76810.97;;;-147.98;100.00
39129;BME280;24864;49.940;19.770;2022-11-15T03:14:30;76821.38;;;-147.98;100.00
39129;BME280;24864;49.940;19.770;2022-11-15T03:17:04;76810.97;;;-147.98;100.00
39129;BME280;24864;49.940;19.770;2022-11-15T03:19:40;76802.66;;;-147.98;100.00
39129;BME280;24864;49.940;19.770;2022-11-15T03:22:14;76829.69;;;-147.98;100.00
39129;BME280;24864;49.940;19.770;2022-11-15T03:24:45;76823.44;;;-147.98;100.00
39129;BME280;24864;49.940;19.770;2022-11-15T03:27:17;76825.53;;;-147.98;100.00
39129;BME280;24864;49.940;19.770;2022-11-15T03:29:50;76827.59;;;-147.98;100.00
39129;BME280;24864;49.940;19.770;2022-11-15T03:32:23;76823.44;;;-147.98;100.00
39129;BME280;24864;49.940;19.770;2022-11-15T03:34:55;76802.66;;;-147.98;100.00
39129;BME280;24864;49.940;19.770;2022-11-15T03:37:32;76810.97;;;-147.98;100.00
39129;BME280;24864;49.940;19.770;2022-11-15T03:40:03;76808.91;;;-147.98;100.00
39129;BME280;24864;49.940;19.770;2022-11-15T03:42:36;76819.28;;;-147.98;100.00
39129;BME280;24864;49.940;19.770;2022-11-15T03:45:12;76815.13;;;-147.98;100.00
39129;BME280;24864;49.940;19.770;2022-11-15T03:47:46;76806.81;;;-147.98;100.00
39129;BME280;24864;49.940;19.770;2022-11-15T03:50:20;76819.28;;;-147.98;100.00
39129;BME280;24864;49.940;19.770;2022-11-15T03:52:49;76800.56;;;-147.98;100.00
39129;BME280;24864;49.940;19.770;2022-11-15T03:55:19;76802.66;;;-147.98;100.00
39129;BME280;24864;49.940;19.770;2022-11-15T03:57:50;76794.34;;;-147.98;100.00
39129;BME280;24864;49.940;19.770;2022-11-15T04:00:19;76783.94;;;-147.98;100.00
39129;BME280;24864;49.940;19.770;2022-11-15T04:02:47;76790.19;;;-147.98;100.00
39129;BME280;24864;49.940;19.770;2022-11-15T04:05:16;76786.03;;;-147.98;100.00
39129;BME280;24864;49.940;19.770;2022-11-15T04:07:45;76779.78;;;-147.98;100.00
39129;BME280;24864;49.940;19.770;2022-11-15T04:10:14;76781.88;;;-147.98;100.00
39129;BME280;24864;49.940;19.770;2022-11-15T04:12:43;76775.63;;;-147.98;100.00
39129;BME280;24864;49.940;19.770;2022-11-15T04:15:15;76790.19;;;-147.98;100.00
39129;BME280;24864;49.940;19.770;2022-11-15T04:17:45;76790.19;;;-147.98;100.00
39129;BME280;24864;49.940;19.770;2022-11-15T04:20:16;76806.81;;;-147.98;100.00
39129;BME280;24864;49.940;19.770;2022-11-15T04:23:04;76779.78;;;-147.98;100.00
39129;BME280;24864;49.940;19.770;2022-11-15T04:25:52;76798.50;;;-147.98;100.00
39129;BME280;24864;49.940;19.770;2022-11-15T04:28:21;76777.69;;;-147.98;100.00
39129;BME280;24864;49.940;19.770;2022-11-15T04:30:49;76781.88;;;-147.98;100.00
39129;BME280;24864;49.940;19.770;2022-11-15T04:33:18;76798.50;;;-147.98;100.00
39129;BME280;24864;49.940;19.770;2022-11-15T04:35:46;76798.50;;;-147.98;100.00
39129;BME280;24864;49.940;19.770;2022-11-15T04:38:36;76810.97;;;-147.98;100.00
39129;BME280;24864;49.940;19.770;2022-11-15T04:41:03;76819.28;;;-147.98;100.00
39129;BME280;24864;49.940;19.770;2022-11-15T04:43:31;76827.59;;;-147.98;100.00
39129;BME280;24864;49.940;19.770;2022-11-15T04:46:00;76831.75;;;-147.98;100.00
39129;BME280;24864;49.940;19.770;2022-11-15T04:48:28;76823.44;;;-147.98;100.00
39129;BME280;24864;49.940;19.770;2022-11-15T04:50:56;76823.44;;;-147.98;100.00
39129;BME280;24864;49.940;19.770;2022-11-15T04:53:24;76825.53;;;-147.98;100.00
39129;BME280;24864;49.940;19.770;2022-11-15T04:55:53;76827.59;;;-147.98;100.00
39129;BME280;24864;49.940;19.770;2022-11-15T04:58:21;76831.75;;;-147.98;100.00
39129;BME280;24864;49.940;19.770;2022-11-15T05:00:49;76844.25;;;-147.98;100.00
39129;BME280;24864;49.940;19.770;2022-11-15T05:03:17;76856.72;;;-147.98;100.00
39129;BME280;24864;49.940;19.770;2022-11-15T05:06:03;76856.72;;;-147.98;100.00
39129;BME280;24864;49.940;19.770;2022-11-15T05:08:31;76873.34;;;-147.98;100.00
39129;BME280;24864;49.940;19.770;2022-11-15T05:11:00;76877.50;;;-147.98;100.00
39129;BME280;24864;49.940;19.770;2022-11-15T05:13:28;76871.28;;;-147.98;100.00
39129;BME280;24864;49.940;19.770;2022-11-15T05:15:57;76879.59;;;-147.98;100.00
39129;BME280;24864;49.940;19.770;2022-11-15T05:18:25;76865.03;;;-147.98;100.00
39129;BME280;24864;49.940;19.770;2022-11-15T05:20:53;76860.88;;;-147.98;100.00
39129;BME280;24864;49.940;19.770;2022-11-15T05:23:21;76869.19;;;-147.98;100.00
39129;BME280;24864;49.940;19.770;2022-11-15T05:25:49;76869.19;;;-147.98;100.00
39129;BME280;24864;49.940;19.770;2022-11-15T05:28:18;76869.19;;;-147.98;100.00
39129;BME280;24864;49.940;19.770;2022-11-15T05:30:46;76890.00;;;-147.98;100.00
39129;BME280;24864;49.940;19.770;2022-11-15T05:33:14;76898.31;;;-147.98;100.00
39129;BME280;24864;49.940;19.770;2022-11-15T05:35:46;76892.06;;;-147.98;100.00
39129;BME280;24864;49.940;19.770;2022-11-15T05:38:17;76900.38;;;-147.98;100.00
39129;BME280;24864;49.940;19.770;2022-11-15T05:40:45;76910.78;;;-147.98;100.00
39129;BME280;24864;49.940;19.770;2022-11-15T05:43:13;76906.63;;;-147.98;100.00
39129;BME280;24864;49.940;19.770;2022-11-15T05:45:42;76910.78;;;-147.98;100.00
39129;BME280;24864;49.940;19.770;2022-11-15T05:48:11;76919.09;;;-147.98;100.00
39129;BME280;24864;49.940;19.770;2022-11-15T05:50:43;76919.09;;;-147.98;100.00
39129;BME280;24864;49.940;19.770;2022-11-15T05:53:15;76923.25;;;-147.98;100.00
39129;BME280;24864;49.940;19.770;2022-11-15T05:55:44;76923.25;;;-147.98;100.00
39129;BME280;24864;49.940;19.770;2022-11-15T05:58:12;76927.41;;;-147.98;100.00
39129;BME280;24864;49.940;19.770;2022-11-15T06:00:40;76906.63;;;-147.98;100.00
39129;BME280;24864;49.940;19.770;2022-11-15T06:03:11;76906.63;;;-147.98;100.00
39129;BME280;24864;49.940;19.770;2022-11-15T06:05:40;76914.94;;;-147.98;100.00
39129;BME280;24864;49.940;19.770;2022-11-15T06:08:08;76914.94;;;-147.98;100.00
39129;BME280;24864;49.940;19.770;2022-11-15T06:10:36;76914.94;;;-147.98;100.00
39129;BME280;24864;49.940;19.770;2022-11-15T06:13:04;76914.94;;;-147.98;100.00
39129;BME280;24864;49.940;19.770;2022-11-15T06:15:33;76927.41;;;-147.98;100.00
39129;BME280;24864;49.940;19.770;2022-11-15T06:18:01;76914.94;;;-147.98;100.00
39129;BME280;24864;49.940;19.770;2022-11-15T06:20:31;76919.09;;;-147.98;100.00
39129;BME280;24864;49.940;19.770;2022-11-15T06:22:59;76906.63;;;-147.98;100.00
39129;BME280;24864;49.940;19.770;2022-11-15T06:25:29;76902.47;;;-147.98;100.00
39129;BME280;24864;49.940;19.770;2022-11-15T06:27:58;76904.53;;;-147.98;100.00
39129;BME280;24864;49.940;19.770;2022-11-15T06:30:26;76890.00;;;-147.98;100.00
39129;BME280;24864;49.940;19.770;2022-11-15T06:33:02;76885.84;;;-147.98;100.00
39129;BME280;24864;49.940;19.770;2022-11-15T06:35:33;76881.66;;;-147.98;100.00
39129;BME280;24864;49.940;19.770;2022-11-15T06:38:03;76879.59;;;-147.98;100.00
39129;BME280;24864;49.940;19.770;2022-11-15T06:40:33;76883.75;;;-147.98;100.00
39129;BME280;24864;49.940;19.770;2022-11-15T06:43:02;76877.50;;;-147.98;100.00
39129;BME280;24864;49.940;19.770;2022-11-15T06:45:30;76885.84;;;-147.98;100.00
39129;BME280;24864;49.940;19.770;2022-11-15T06:47:59;76885.84;;;-147.98;100.00
39129;BME280;24864;49.940;19.770;2022-11-15T06:50:27;76865.03;;;-147.98;100.00
39129;BME280;24864;49.940;19.770;2022-11-15T06:53:00;76860.88;;;-147.98;100.00
39129;BME280;24864;49.940;19.770;2022-11-15T06:55:29;76856.72;;;-147.98;100.00
39129;BME280;24864;49.940;19.770;2022-11-15T06:57:56;76827.59;;;-147.98;100.00
39129;BME280;24864;49.940;19.770;2022-11-15T07:00:25;76823.44;;;-147.98;100.00
39129;BME280;24864;49.940;19.770;2022-11-15T07:02:53;76806.81;;;-147.98;100.00
39129;BME280;24864;49.940;19.770;2022-11-15T07:05:20;76794.34;;;-147.98;100.00
39129;BME280;24864;49.940;19.770;2022-11-15T07:07:52;76779.78;;;-147.98;100.00
39129;BME280;24864;49.940;19.770;2022-11-15T07:10:22;76773.53;;;-147.98;100.00
39129;BME280;24864;49.940;19.770;2022-11-15T07:12:51;76761.06;;;-147.98;100.00
39129;BME280;24864;49.940;19.770;2022-11-15T07:15:20;76769.38;;;-147.98;100.00
39129;BME280;24864;49.940;19.770;2022-11-15T07:17:48;76781.88;;;-147.98;100.00
39129;BME280;24864;49.940;19.770;2022-11-15T07:20:17;76748.59;;;-147.98;100.00
39129;BME280;24864;49.940;19.770;2022-11-15T07:22:45;76752.75;;;-147.98;100.00
39129;BME280;24864;49.940;19.770;2022-11-15T07:25:13;76744.44;;;-147.98;100.00
39129;BME280;24864;49.940;19.770;2022-11-15T07:27:43;76734.03;;;-147.98;100.00
39129;BME280;24864;49.940;19.770;2022-11-15T07:30:12;76748.59;;;-147.98;100.00
39129;BME280;24864;49.940;19.770;2022-11-15T07:32:41;76740.28;;;-147.98;100.00
39129;BME280;24864;49.940;19.770;2022-11-15T07:35:09;76727.81;;;-147.98;100.00
39129;BME280;24864;49.940;19.770;2022-11-15T07:37:37;76694.53;;;-147.98;100.00
39129;BME280;24864;49.940;19.770;2022-11-15T07:40:07;76709.09;;;-147.98;100.00
39129;BME280;24864;49.940;19.770;2022-11-15T07:42:35;76692.44;;;-147.98;100.00
39129;BME280;24864;49.940;19.770;2022-11-15T07:45:24;76707.00;;;-147.98;100.00
39129;BME280;24864;49.940;19.770;2022-11-15T07:47:53;76686.22;;;-147.98;100.00
39129;BME280;24864;49.940;19.770;2022-11-15T07:50:23;76665.44;;;-147.98;100.00
39129;BME280;24864;49.940;19.770;2022-11-15T07:52:54;76677.91;;;-147.98;100.00
39129;BME280;24864;49.940;19.770;2022-11-15T07:55:23;76655.03;;;-147.98;100.00
39129;BME280;24864;49.940;19.770;2022-11-15T07:57:51;76661.25;;;-147.98;100.00
39129;BME280;24864;49.940;19.770;2022-11-15T08:00:19;76686.22;;;-147.98;100.00
39129;BME280;24864;49.940;19.770;2022-11-15T08:02:48;76692.44;;;-147.98;100.00
39129;BME280;24864;49.940;19.770;2022-11-15T08:05:16;76684.13;;;-147.98;100.00
39129;BME280;24864;49.940;19.770;2022-11-15T08:07:44;76667.50;;;-147.98;100.00
39129;BME280;24864;49.940;19.770;2022-11-15T08:10:12;76659.19;;;-147.98;100.00
39129;BME280;24864;49.940;19.770;2022-11-15T08:12:43;76640.47;;;-147.98;100.00
39129;BME280;24864;49.940;19.770;2022-11-15T08:15:11;76625.91;;;-147.98;100.00
39129;BME280;24864;49.940;19.770;2022-11-15T08:17:39;76598.88;;;-147.98;100.00
39129;BME280;24864;49.940;19.770;2022-11-15T08:20:09;76623.84;;;-147.98;100.00
39129;BME280;24864;49.940;19.770;2022-11-15T08:22:38;76628.00;;;-147.98;100.00
39129;BME280;24864;49.940;19.770;2022-11-15T08:25:06;76598.88;;;-147.98;100.00
39129;BME280;24864;49.940;19.770;2022-11-15T08:27:34;76607.22;;;-147.98;100.00
39129;BME280;24864;49.940;19.770;2022-11-15T08:30:02;76569.78;;;-147.98;100.00
39129;BME280;24864;49.940;19.770;2022-11-15T08:32:30;76567.69;;;-147.98;100.00
39129;BME280;24864;49.940;19.770;2022-11-15T08:34:59;76598.88;;;-147.98;100.00
39129;BME280;24864;49.940;19.770;2022-11-15T08:37:28;76603.03;;;-147.98;100.00
39129;BME280;24864;49.940;19.770;2022-11-15T08:39:56;76607.22;;;-147.98;100.00
39129;BME280;24864;49.940;19.770;2022-11-15T08:42:24;76636.31;;;-147.98;100.00
39129;BME280;24864;49.940;19.770;2022-11-15T08:44:52;76648.78;;;-147.98;100.00
39129;BME280;24864;49.940;19.770;2022-11-15T08:47:20;76615.53;;;-147.98;100.00
39129;BME280;24864;49.940;19.770;2022-11-15T08:49:48;76598.88;;;-147.98;100.00
39129;BME280;24864;49.940;19.770;2022-11-15T08:52:16;76580.19;;;-147.98;100.00
39129;BME280;24864;49.940;19.770;2022-11-15T08:54:45;76590.56;;;-147.98;100.00
39129;BME280;24864;49.940;19.770;2022-11-15T08:57:13;76596.81;;;-147.98;100.00
39129;BME280;24864;49.940;19.770;2022-11-15T08:59:42;76603.03;;;-147.98;100.00
39129;BME280;24864;49.940;19.770;2022-11-15T09:02:11;76615.53;;;-147.98;100.00
39129;BME280;24864;49.940;19.770;2022-11-15T09:04:40;76603.03;;;-147.98;100.00
39129;BME280;24864;49.940;19.770;2022-11-15T09:07:09;76607.22;;;-147.98;100.00
39129;BME280;24864;49.940;19.770;2022-11-15T09:09:38;76578.09;;;-147.98;100.00
39129;BME280;24864;49.940;19.770;2022-11-15T09:12:07;76580.19;;;-147.98;100.00
39129;BME280;24864;49.940;19.770;2022-11-15T09:14:36;76569.78;;;-147.98;100.00
39129;BME280;24864;49.940;19.770;2022-11-15T09:17:07;76555.22;;;-147.98;100.00
39129;BME280;24864;49.940;19.770;2022-11-15T09:19:35;76551.06;;;-147.98;100.00
39129;BME280;24864;49.940;19.770;2022-11-15T09:22:05;76569.78;;;-147.98;100.00
39129;BME280;24864;49.940;19.770;2022-11-15T09:24:34;76557.31;;;-147.98;100.00
39129;BME280;24864;49.940;19.770;2022-11-15T09:27:02;76549.00;;;-147.98;100.00
39129;BME280;24864;49.940;19.770;2022-11-15T09:29:32;76540.66;;;-147.98;100.00
39129;BME280;24864;49.940;19.770;2022-11-15T09:32:00;76528.19;;;-147.98;100.00
39129;BME280;24864;49.940;19.770;2022-11-15T09:34:28;76526.13;;;-147.98;100.00
39129;BME280;24864;49.940;19.770;2022-11-15T09:36:56;76532.34;;;-147.98;100.00
39129;BME280;24864;49.940;19.770;2022-11-15T09:39:24;76519.88;;;-147.98;100.00
39129;BME280;24864;49.940;19.770;2022-11-15T09:41:59;76503.25;;;-147.98;100.00
39129;BME280;24864;49.940;19.770;2022-11-15T09:44:51;76517.81;;;-147.98;100.00
39129;BME280;24864;49.940;19.770;2022-11-15T09:47:45;76524.03;;;-147.98;100.00
39129;BME280;24864;49.940;19.770;2022-11-15T09:50:20;76521.97;;;-147.98;100.00
39129;BME280;24864;49.940;19.770;2022-11-15T09:52:54;76499.09;;;-147.98;100.00
39129;BME280;24864;49.940;19.770;2022-11-15T09:55:32;76490.78;;;-147.98;100.00
39129;BME280;24864;49.940;19.770;2022-11-15T09:58:09;76484.53;;;-147.98;100.00
39129;BME280;24864;49.940;19.770;2022-11-15T10:00:47;76463.75;;;-147.98;100.00
39129;BME280;24864;49.940;19.770;2022-11-15T10:03:24;76422.16;;;-147.98;100.00
39129;BME280;24864;49.940;19.770;2022-11-15T10:05:56;76386.81;;;-147.98;100.00
39129;BME280;24864;49.940;19.770;2022-11-15T10:08:44;76353.56;;;-147.98;100.00
39129;BME280;24864;49.940;19.770;2022-11-15T10:11:18;76349.41;;;-147.98;100.00
39129;BME280;24864;49.940;19.770;2022-11-15T10:14:10;76324.44;;;-147.98;100.00
39129;BME280;24864;49.940;19.770;2022-11-15T10:19:56;76274.53;;;-147.98;100.00
39129;BME280;24864;49.940;19.770;2022-11-15T10:22:37;76257.91;;;-147.98;100.00
39129;BME280;24864;49.940;19.770;2022-11-15T10:25:21;76195.53;;;-147.98;100.00
39129;BME280;24864;49.940;19.770;2022-11-15T10:27:56;76156.03;;;-147.98;100.00
39129;BME280;24864;49.940;19.770;2022-11-15T10:30:32;76079.13;;;-147.98;100.00
39129;BME280;24864;49.940;19.770;2022-11-15T10:33:11;76020.91;;;-147.98;100.00
39129;BME280;24864;49.940;19.770;2022-11-15T10:35:41;75941.91;;;-147.98;100.00
39129;BME280;24864;49.940;19.770;2022-11-15T10:38:10;75879.56;;;-147.98;100.00
39129;BME280;24864;49.940;19.770;2022-11-15T10:40:39;75829.66;;;-147.98;100.00
39129;BME280;24864;49.940;19.770;2022-11-15T10:43:15;75758.97;;;-147.98;100.00
39129;BME280;24864;49.940;19.770;2022-11-15T10:45:44;75709.09;;;-147.98;100.00
39129;BME280;24864;49.940;19.770;2022-11-15T10:48:23;75638.41;;;-147.98;100.00
39129;BME280;24864;49.940;19.770;2022-11-15T10:50:53;75580.22;;;-147.98;100.00
39129;BME280;24864;49.940;19.770;2022-11-15T10:53:26;75603.06;;;-147.98;100.00
39129;BME280;24864;49.940;19.770;2022-11-15T10:55:57;75546.94;;;-147.98;100.00
39129;BME280;24864;49.940;19.770;2022-11-15T10:58:32;75559.41;;;-147.98;100.00
39129;BME280;24864;49.940;19.770;2022-11-15T11:01:13;75488.75;;;-147.98;100.00
39129;BME280;24864;49.940;19.770;2022-11-15T11:03:44;75457.56;;;-147.98;100.00
39129;BME280;24864;49.940;19.770;2022-11-15T11:06:16;75499.13;;;-147.98;100.00
39129;BME280;24864;49.940;19.770;2022-11-15T11:08:55;75492.91;;;-147.98;100.00
39129;BME280;24864;49.940;19.770;2022-11-15T11:11:23;75480.44;;;-147.98;100.00
39129;BME280;24864;49.940;19.770;2022-11-15T11:13:52;75524.09;;;-147.98;100.00
39129;BME280;24864;49.940;19.770;2022-11-15T11:16:32;75530.31;;;-147.98;100.00
39129;BME280;24864;49.940;19.770;2022-11-15T11:19:17;75530.31;;;-147.98;100.00
39129;BME280;24864;49.940;19.770;2022-11-15T11:21:53;75571.91;;;-147.98;100.00
39129;BME280;24864;49.940;19.770;2022-11-15T11:24:32;75551.09;;;-147.98;100.00
39129;BME280;24864;49.940;19.770;2022-11-15T11:27:22;75594.75;;;-147.98;100.00
39129;BME280;24864;49.940;19.770;2022-11-15T11:30:03;75605.16;;;-147.98;100.00
39129;BME280;24864;49.940;19.770;2022-11-15T11:35:42;75615.53;;;-147.98;100.00
39129;BME280;24864;49.940;19.770;2022-11-15T11:38:22;75675.81;;;-147.98;100.00
39129;BME280;24864;49.940;19.770;2022-11-15T11:41:06;75679.97;;;-147.98;100.00
39129;BME280;24864;49.940;19.770;2022-11-15T11:43:43;75711.16;;;-147.98;100.00
39129;BME280;24864;49.940;19.770;2022-11-15T11:46:30;75717.41;;;-147.98;100.00
39129;BME280;24864;49.940;19.770;2022-11-15T11:49:08;75690.38;;;-147.98;100.00
39129;BME280;24864;49.940;19.770;2022-11-15T11:51:40;75700.78;;;-147.98;100.00
39129;BME280;24864;49.940;19.770;2022-11-15T11:54:13;75700.78;;;-147.98;100.00
39129;BME280;24864;49.940;19.770;2022-11-15T11:56:44;75696.63;;;-147.98;100.00
39129;BME280;24864;49.940;19.770;2022-11-15T11:59:19;75686.22;;;-147.98;100.00
39129;BME280;24864;49.940;19.770;2022-11-15T12:01:50;75688.31;;;-147.98;100.00
39129;BME280;24864;49.940;19.770;2022-11-15T12:04:23;75663.34;;;-147.98;100.00
39129;BME280;24864;49.940;19.770;2022-11-15T12:06:57;75659.19;;;-147.98;100.00
39129;BME280;24864;49.940;19.770;2022-11-15T12:09:32;75636.34;;;-147.98;100.00
39129;BME280;24864;49.940;19.770;2022-11-15T12:12:06;75634.25;;;-147.98;100.00
39129;BME280;24864;49.940;19.770;2022-11-15T12:14:41;75621.78;;;-147.98;100.00
39129;BME280;24864;49.940;19.770;2022-11-15T12:17:11;75609.31;;;-147.98;100.00
39129;BME280;24864;49.940;19.770;2022-11-15T12:19:40;75601.00;;;-147.98;100.00
39129;BME280;24864;49.940;19.770;2022-11-15T12:22:12;75601.00;;;-147.98;100.00
39129;BME280;24864;49.940;19.770;2022-11-15T12:24:50;75588.53;;;-147.98;100.00
39129;BME280;24864;49.940;19.770;2022-11-15T12:27:24;75598.91;;;-147.98;100.00
39129;BME280;24864;49.940;19.770;2022-11-15T12:29:57;75605.16;;;-147.98;100.00
39129;BME280;24864;49.940;19.770;2022-11-15T12:32:26;75619.69;;;-147.98;100.00
39129;BME280;24864;49.940;19.770;2022-11-15T12:34:57;75605.16;;;-147.98;100.00
39129;BME280;24864;49.940;19.770;2022-11-15T12:37:33;75605.16;;;-147.98;100.00
39129;BME280;24864;49.940;19.770;2022-11-15T12:40:24;75601.00;;;-147.98;100.00
39129;BME280;24864;49.940;19.770;2022-11-15T12:43:02;75601.00;;;-147.98;100.00
39129;BME280;24864;49.940;19.770;2022-11-15T12:45:32;75588.53;;;-147.98;100.00
39129;BME280;24864;49.940;19.770;2022-11-15T12:51:05;75617.63;;;-147.98;100.00
39129;BME280;24864;49.940;19.770;2022-11-15T12:53:34;75601.00;;;-147.98;100.00
39129;BME280;24864;49.940;19.770;2022-11-15T12:56:21;75601.00;;;-147.98;100.00